Sundance, Wyoming
Current Conditions -  °F | °C
As of 8:15 AM on Saturday 22 Nov 2014 (Local Time) from KSPF Reporting Station
Clear Clear  
Wind Chill: 39°   Ceiling: Unl
Heat Index: 45°   Visibility: 10mi
Dew Point: 23°   Wind: 10mph
Humidity: 43%   Direction: 270°W
Pressure: 29.47"   Gusts: 18mph
Location:  44.41°N, 104.38°W
Report Text: KSPF 221515Z AUTO 27009G16KT 030V040 10SM CLR 07/M05 A2947 RMK AO2
Loading
Personal Weather Stations






























Interactive Weather Map New forecast layout! Learn more

10-Day Weather Forecast

Advertisements
Track Severe Weather on mobile